sim
Sign-in with your pilot id or email,
or register
Callsign
Passwort

Schedule Details

Flight Number: DLH2396 (1)
Departure: Munich Airport (EDDM) at 10:30
Arrival: Basel Mulhouse-Freiburg EuroAirport (LFSB) at 11:25
Route: Lufthansa Passenger Schedule. Enter filed route here before submitting Pirep.

Weather Information
Getting current METAR information for EDDM 240020Z 24001KT 9999 R26R/1100D NSC 12/11 Q1009 NOSIG
Getting current METAR information for LFSB 240030Z AUTO VRB02KT CAVOK 14/13 Q1008 TEMPO 25015G28KT 4000 SHRA SCT030TCU

Schedule Frequency

Route Map